createdAt,value
2022-11-18T00:04:36.340Z,27.2
2022-11-18T00:09:58.295Z,26.9
2022-11-18T00:15:35.887Z,26.6
2022-11-18T00:21:15.093Z,32.7
2022-11-18T00:26:55.727Z,32.3
2022-11-18T00:32:32.550Z,29
2022-11-18T00:38:09.637Z,28.2
2022-11-18T00:43:32.240Z,27.7
2022-11-18T00:49:10.146Z,27.3
2022-11-18T00:54:32.622Z,26.9
2022-11-18T01:00:10.442Z,30.8
2022-11-18T01:05:33.225Z,33.8
2022-11-18T01:10:55.884Z,30.3
2022-11-18T01:16:18.407Z,28.7
2022-11-18T01:21:40.241Z,28.1
2022-11-18T01:27:02.782Z,27.7
2022-11-18T01:33:17.045Z,27.3
2022-11-18T01:38:38.889Z,28.4
2022-11-18T01:44:16.403Z,33.3
2022-11-18T01:49:39.002Z,32.3
2022-11-18T01:54:50.964Z,29.3
2022-11-18T02:00:12.628Z,28.5
2022-11-18T02:05:52.495Z,28.1
2022-11-18T02:11:31.016Z,27.6
2022-11-18T02:17:09.337Z,27.1
2022-11-18T02:22:46.663Z,30.1
2022-11-18T02:28:23.699Z,33.9
2022-11-18T02:33:30.848Z,31.3
2022-11-18T02:38:52.370Z,29.3
2022-11-18T02:44:29.843Z,28.6
2022-11-18T02:50:08.197Z,28
2022-11-18T02:55:45.427Z,27.4
2022-11-18T03:01:23.642Z,26.7
2022-11-18T03:07:01.010Z,32.7
2022-11-18T03:12:23.386Z,33.3
2022-11-18T03:17:29.927Z,29.9
2022-11-18T03:22:52.190Z,28.9
2022-11-18T03:28:14.208Z,28.3
2022-11-18T03:33:21.344Z,27.8
2022-11-18T03:39:08.498Z,27.3
2022-11-18T03:44:49.656Z,31
2022-11-18T03:50:29.433Z,34.3
2022-11-18T03:55:52.368Z,31
2022-11-18T04:01:34.903Z,29.2
2022-11-18T04:07:12.271Z,28.6
2022-11-18T04:12:50.179Z,28.1
2022-11-18T04:18:28.017Z,27.6
2022-11-18T04:24:06.667Z,30.7
2022-11-18T04:29:29.164Z,34.1
2022-11-18T04:35:05.909Z,31.4
2022-11-18T04:40:35.515Z,29.3
2022-11-18T04:46:13.583Z,28.6
2022-11-18T04:51:56.373Z,28.1
2022-11-18T04:57:38.694Z,27.6
2022-11-18T05:03:17.102Z,31.2
2022-11-18T05:08:39.564Z,34.3
2022-11-18T05:14:02.152Z,31.3
2022-11-18T05:19:26.188Z,29.4
2022-11-18T05:24:51.803Z,28.8
2022-11-18T05:30:14.034Z,28.3
2022-11-18T05:35:55.062Z,27.8
2022-11-18T05:41:17.498Z,27.3
2022-11-18T05:46:56.958Z,26.8
2022-11-18T05:52:35.979Z,26.3
2022-11-18T05:58:14.078Z,25.9
2022-11-18T06:03:52.640Z,31.8
2022-11-18T06:09:31.665Z,31.9
2022-11-18T06:15:09.512Z,29.2
2022-11-18T06:20:50.442Z,28.5
2022-11-18T06:26:28.984Z,27.9
2022-11-18T06:32:12.783Z,27.1
2022-11-18T06:37:50.649Z,26.5
2022-11-18T06:43:35.458Z,25.9
2022-11-18T06:48:59.047Z,25.3
2022-11-18T06:54:27.183Z,31.1
2022-11-18T07:00:05.461Z,32.6
2022-11-18T07:05:43.100Z,29.4
2022-11-18T07:11:20.892Z,28.1
2022-11-18T07:17:03.709Z,27.3
2022-11-18T07:22:40.504Z,26.6
2022-11-18T07:28:18.793Z,26
2022-11-18T07:33:57.503Z,25.4
2022-11-18T07:39:39.460Z,24.9
2022-11-18T07:45:23.608Z,30.7
2022-11-18T07:51:03.894Z,32.9
2022-11-18T07:56:41.301Z,29.6
2022-11-18T08:02:20.637Z,28.6
2022-11-18T08:08:05.045Z,27.9
2022-11-18T08:13:46.712Z,27.1
2022-11-18T08:19:24.035Z,26.4
2022-11-18T08:25:06.634Z,25.8
2022-11-18T08:30:48.180Z,25.1
2022-11-18T08:36:31.065Z,31.8
2022-11-18T08:41:54.837Z,32.4
2022-11-18T08:47:18.695Z,29.3
2022-11-18T08:52:57.059Z,28.4
2022-11-18T08:58:35.076Z,27.7
2022-11-18T09:04:12.153Z,27.1
2022-11-18T09:09:55.985Z,26.4
2022-11-18T09:17:04.097Z,25.8
2022-11-18T09:23:08.577Z,26.5
2022-11-18T09:28:53.516Z,33
2022-11-18T09:34:31.835Z,30.8
2022-11-18T09:40:15.242Z,28.6
2022-11-18T09:45:58.449Z,27.9
2022-11-18T09:52:10.932Z,27.3
2022-11-18T09:57:56.454Z,26.6
2022-11-18T10:03:34.411Z,26.1
2022-11-18T10:09:12.848Z,25.5
2022-11-18T10:14:55.576Z,25.1
2022-11-18T10:20:58.927Z,24.7
2022-11-18T10:26:47.132Z,24.3
2022-11-18T10:32:09.576Z,23.9
2022-11-18T10:37:52.864Z,24.5
2022-11-18T10:43:39.315Z,32.4
2022-11-18T10:49:02.336Z,30.8
2022-11-18T10:54:47.405Z,29.1
2022-11-18T11:00:30.999Z,28.4
2022-11-18T11:06:11.216Z,27.7
2022-11-18T11:11:59.709Z,27.1
2022-11-18T11:17:38.550Z,26.4
2022-11-18T11:23:22.208Z,25.8
2022-11-18T11:30:47.708Z,25.3
2022-11-18T11:36:25.655Z,24.7
2022-11-18T11:42:08.714Z,24.3
2022-11-18T11:47:30.755Z,24.1
2022-11-18T11:53:17.325Z,31.3
2022-11-18T11:58:40.161Z,32.1
2022-11-18T12:04:24.754Z,29.1
2022-11-18T12:10:03.731Z,28.2
2022-11-18T12:15:46.880Z,27.6
2022-11-18T12:21:25.290Z,26.9
2022-11-18T12:27:03.726Z,26.3
2022-11-18T12:32:41.742Z,25.8
2022-11-18T12:38:19.602Z,25.3
2022-11-18T12:43:57.799Z,24.8
2022-11-18T12:49:36.519Z,24.3
2022-11-18T12:55:02.997Z,23.9
2022-11-18T13:00:25.708Z,25.9
2022-11-18T13:06:09.514Z,32.6
2022-11-18T13:11:48.784Z,30.7
2022-11-18T13:17:28.073Z,28.6
2022-11-18T13:28:12.606Z,27.2
2022-11-18T13:33:50.091Z,26.6
2022-11-18T13:39:34.806Z,26
2022-11-18T13:45:01.216Z,25.4
2022-11-18T13:50:40.741Z,24.9
2022-11-18T13:56:03.041Z,24.4
2022-11-18T14:01:57.733Z,24.1
2022-11-18T14:07:04.710Z,24.7
2022-11-18T14:12:42.778Z,32.1
2022-11-18T14:18:22.166Z,31.6
2022-11-18T14:24:02.053Z,29.1
2022-11-18T14:29:40.478Z,28.3
2022-11-18T14:35:03.221Z,27.6
2022-11-18T14:41:44.162Z,27
2022-11-18T14:46:52.091Z,26.3
2022-11-18T14:52:30.551Z,25.8
2022-11-18T14:58:17.166Z,25.2
2022-11-18T15:04:01.598Z,24.7
2022-11-18T15:09:09.476Z,24.3
2022-11-18T15:14:32.395Z,24
2022-11-18T15:19:54.934Z,27.9
2022-11-18T15:25:32.614Z,33.3
2022-11-18T15:31:11.137Z,30.3
2022-11-18T15:36:53.864Z,28.9
2022-11-18T15:42:01.047Z,28.2
2022-11-18T15:47:51.898Z,27.6
2022-11-18T15:53:32.147Z,26.8
2022-11-18T15:59:04.535Z,26.2
2022-11-18T16:04:28.024Z,25.6
2022-11-18T16:09:52.962Z,25.1
2022-11-18T16:15:15.084Z,24.6
2022-11-18T16:20:55.201Z,24.3
2022-11-18T16:26:33.687Z,23.9
2022-11-18T16:32:18.385Z,23.6
2022-11-18T16:38:03.660Z,28.9
2022-11-18T16:43:48.050Z,33.6
2022-11-18T16:49:31.936Z,30
2022-11-18T16:55:01.612Z,28.8
2022-11-18T17:00:44.288Z,28.1
2022-11-18T17:06:44.208Z,27.4
2022-11-18T17:12:07.522Z,26.7
2022-11-18T17:17:34.226Z,26.1
2022-11-18T17:23:01.539Z,25.6
2022-11-18T17:28:26.809Z,25
2022-11-18T17:33:54.284Z,24.6
2022-11-18T17:39:21.293Z,24.1
2022-11-18T17:44:44.068Z,23.8
2022-11-18T17:50:14.182Z,26.3
2022-11-18T17:56:02.447Z,32.7
2022-11-18T18:01:41.655Z,31
2022-11-18T18:07:22.271Z,29.3
2022-11-18T18:12:35.775Z,28.5
2022-11-18T18:18:20.301Z,27.9
2022-11-18T18:23:59.938Z,27.1
2022-11-18T18:29:39.115Z,26.4
2022-11-18T18:35:23.848Z,25.8
2022-11-18T18:40:30.615Z,25.2
2022-11-18T18:45:42.704Z,24.7
2022-11-18T18:51:21.808Z,24.3
2022-11-18T18:57:06.887Z,24.4
2022-11-18T19:02:39.166Z,32.4
2022-11-18T19:09:30.448Z,31.6
2022-11-18T19:14:54.837Z,29.6
2022-11-18T19:20:03.987Z,28.8
2022-11-18T19:26:12.557Z,28.1
2022-11-18T19:31:56.625Z,27.4
2022-11-18T19:37:21.859Z,26.6
2022-11-18T19:43:01.956Z,25.9
2022-11-18T19:48:46.459Z,25.3
2022-11-18T19:54:32.682Z,24.8
2022-11-18T20:00:12.777Z,24.4
2022-11-18T20:05:52.944Z,24
2022-11-18T20:11:37.435Z,30.9
2022-11-18T20:17:18.064Z,32.7
2022-11-18T20:23:12.393Z,29.9
2022-11-18T20:28:36.344Z,28.9
2022-11-18T20:34:21.298Z,28.1
2022-11-18T20:39:45.458Z,27.4
2022-11-18T20:45:25.321Z,26.6
2022-11-18T20:50:35.456Z,25.9
2022-11-18T20:55:59.995Z,25.3
2022-11-18T21:00:52.303Z,24.8
2022-11-18T21:06:31.692Z,24.3
2022-11-18T21:12:10.924Z,23.9
2022-11-18T21:17:51.123Z,23.6
2022-11-18T21:23:31.240Z,27.3
2022-11-18T21:29:16.385Z,32.9
2022-11-18T21:34:59.250Z,30.6
2022-11-18T21:40:43.131Z,28.8
2022-11-18T21:46:52.850Z,28.1
2022-11-18T21:52:37.473Z,27.3
2022-11-18T21:58:03.941Z,26.5
2022-11-18T22:03:27.058Z,25.8
2022-11-18T22:09:05.000Z,25.3
2022-11-18T22:14:27.309Z,24.7
2022-11-18T22:20:11.284Z,24.2
2022-11-18T22:25:49.408Z,23.8
2022-11-18T22:31:29.952Z,23.5
2022-11-18T22:37:08.118Z,28.1
2022-11-18T22:42:46.207Z,33.3
2022-11-18T22:48:29.868Z,30.4
2022-11-18T23:02:28.296Z,28
2022-11-18T23:09:00.934Z,27.1
2022-11-18T23:14:45.827Z,26.3
2022-11-18T23:20:11.241Z,25.6
2022-11-18T23:25:35.694Z,25
2022-11-18T23:31:15.787Z,24.6
2022-11-18T23:36:55.497Z,24.1
2022-11-18T23:42:19.784Z,23.6
2022-11-18T23:47:42.530Z,23.4
2022-11-18T23:53:26.550Z,31.8
2022-11-18T23:59:08.550Z,32.1
